MOL Modern — V7VS6 — position and weather

sailwx.info

Track history (hours):
 
Tides and Currents Weather Stations Pressure Air Temp Water Temp Dewpoint Dewpoint Depression Visibility Wind Speed Wind Dir Waves Ship Positions

MOL Modern

Last reported at 2017-Aug-17 23:30 UTC. Time now 2017-Aug-17 23:32 UTC.
Position N 30°38' E 122°45'.

Length 302 m; draft 10.8 m.

Type: Ship (hazmat cat A). MMSI: 538004203.

Date/timePositionNaut miles runAvg speedWind from/ knotsBaromVisibWave heightAir tempDewpointWater temp
2017-Aug-17 23:30N 30°38' E 122°45'1121.6
2017-Aug-17 22:58N 30°35' E 122°32'918.9
2017-Aug-17 22:29N 30°32' E 122°22'612.0
2017-Aug-17 22:00N 30°33' E 122°15'611.3
2017-Aug-17 21:30N 30°34' E 122°09'510.0
2017-Aug-17 21:00N 30°37' E 122°04'0 0.6
2017-Aug-17 20:21N 30°37' E 122°04'0 0.1
2017-Aug-17 19:54N 30°37' E 122°04'0 0.0
2017-Aug-17 19:27N 30°37' E 122°04'0 0.0
2017-Aug-17 18:57N 30°37' E 122°04'0 0.0
2017-Aug-17 17:42N 30°37' E 122°04'0 0.0
2017-Aug-17 16:39N 30°37' E 122°04'30 1.7
2017-Aug-16 23:24N 30°30' E 122°38'511.1
2017-Aug-16 22:58N 30°29' E 122°44'5 9.5
2017-Aug-16 22:29N 30°28' E 122°49'611.3
2017-Aug-16 21:58N 30°28' E 122°55'1 0.4
2017-Aug-16 19:26N 30°29' E 122°57'0 0.1
2017-Aug-16 18:56N 30°28' E 122°57'0 0.0
2017-Aug-16 18:26N 30°28' E 122°57'0 0.1
2017-Aug-16 17:56N 30°28' E 122°56'0 0.0
2017-Aug-16 16:38N 30°28' E 122°56'0 0.0
2017-Aug-16 16:29N 30°28' E 122°56'0 0.0
2017-Aug-16 15:14N 30°28' E 122°56'0 0.1
2017-Aug-16 14:44N 30°28' E 122°57'0 0.0
2017-Aug-16 14:26N 30°28' E 122°57'0 0.1
2017-Aug-16 08:44N 30°29' E 122°56'0 0.1
2017-Aug-16 08:02N 30°28' E 122°56'0 0.1
2017-Aug-16 07:50N 30°28' E 122°56'0 0.0
2017-Aug-16 07:26N 30°29' E 122°56'0 0.0
2017-Aug-16 06:50N 30°28' E 122°56'0 0.0
2017-Aug-16 04:32N 30°28' E 122°56'0 0.0
2017-Aug-15 18:50N 30°29' E 122°56'0 0.1
2017-Aug-15 17:20N 30°28' E 122°56'0 0.0
2017-Aug-15 16:56N 30°28' E 122°56'0 0.0
2017-Aug-15 11:56N 30°28' E 122°56'0 0.0
2017-Aug-15 05:14N 30°28' E 122°56'2 0.1
2017-Aug-14 15:20N 30°28' E 122°58'3710.1
2017-Aug-14 11:38N 29°51' E 122°48'313.0
2017-Aug-14 11:26N 29°50' E 122°46'512.9
2017-Aug-14 11:00N 29°47' E 122°40'612.2
2017-Aug-14 10:30N 29°41' E 122°37'611.7
2017-Aug-14 09:58N 29°40' E 122°30'613.6
2017-Aug-14 09:30N 29°43' E 122°23'611.2
2017-Aug-14 09:00N 29°46' E 122°18'4 8.7
2017-Aug-14 08:30N 29°49' E 122°14'4 7.9
2017-Aug-14 08:00N 29°50' E 122°10'4 8.7
2017-Aug-14 07:30N 29°48' E 122°05'4 9.1
2017-Aug-14 07:00N 29°46' E 122°01'0 0.4
2017-Aug-14 06:27N 29°46' E 122°00'0 0.0
2017-Aug-14 05:57N 29°46' E 122°00'0 0.0
2017-Aug-14 05:21N 29°46' E 122°00'0 0.0
2017-Aug-14 04:48N 29°46' E 122°00'0 0.0
2017-Aug-14 04:27N 29°46' E 122°00'0 0.0
2017-Aug-14 03:51N 29°46' E 122°00'0 0.0
2017-Aug-14 03:27N 29°46' E 122°00'0 0.0
2017-Aug-14 02:57N 29°46' E 122°00'0 0.0
2017-Aug-14 02:15N 29°46' E 122°00'0 0.0
2017-Aug-14 01:57N 29°46' E 122°00'0 0.0
2017-Aug-14 01:15N 29°46' E 122°00'0 0.0
2017-Aug-14 01:00N 29°46' E 122°00'0 0.0
2017-Aug-14 00:30N 29°46' E 122°00'0 0.0
2017-Aug-13 23:51N 29°46' E 122°00'0 0.0
2017-Aug-13 23:30N 29°46' E 122°00'0 0.0
2017-Aug-13 23:00N 29°46' E 122°00'0 0.0
2017-Aug-13 22:27N 29°46' E 122°00'0 0.0
2017-Aug-13 21:57N 29°46' E 122°00'0 0.0
2017-Aug-13 21:30N 29°46' E 122°00'0 0.0
2017-Aug-13 20:57N 29°46' E 122°00'0 0.0
2017-Aug-13 20:21N 29°46' E 122°00'0 0.0
2017-Aug-13 19:51N 29°46' E 122°00'0 0.0
2017-Aug-13 19:21N 29°46' E 122°00'0 0.0
2017-Aug-13 18:57N 29°46' E 122°00'0 0.0
2017-Aug-13 18:27N 29°46' E 122°00'0 0.0
2017-Aug-13 18:00N 29°46' E 122°00'0 0.0
2017-Aug-13 17:30N 29°46' E 122°00'0 0.0
2017-Aug-13 16:57N 29°46' E 122°00'0 0.0
2017-Aug-13 16:27N 29°46' E 122°00'0 0.0
2017-Aug-13 16:00N 29°46' E 122°00'0 0.0
2017-Aug-13 15:30N 29°46' E 122°00'0 0.0
2017-Aug-13 15:00N 29°46' E 122°00'0 0.0
2017-Aug-13 14:21N 29°46' E 122°00'0 0.0
2017-Aug-13 13:57N 29°46' E 122°00'0 0.0
2017-Aug-13 13:27N 29°46' E 122°00'0 0.0
2017-Aug-13 12:57N 29°46' E 122°00'0 0.0
2017-Aug-13 10:12N 29°46' E 122°00'0 0.0
2017-Aug-13 10:00N 29°46' E 122°00'0 0.0
2017-Aug-13 04:36N 29°46' E 122°00'0 0.4
2017-Aug-13 04:28N 29°46' E 122°00'4 5.0
2017-Aug-13 03:38N 29°48' E 122°05'212.1
2017-Aug-13 03:27N 29°48' E 122°07'614.5
2017-Aug-13 03:00N 29°44' E 122°13'611.0
2017-Aug-13 02:30N 29°42' E 122°19'2 4.3
2017-Aug-13 02:00N 29°40' E 122°19'2 4.2
2017-Aug-13 01:28N 29°41' E 122°22'511.4
2017-Aug-13 00:59N 29°41' E 122°28'611.4
2017-Aug-13 00:29N 29°41' E 122°34'  
2017-Aug-10 19:11N 33°51' E 134°56'418.2
2017-Aug-10 18:57N 33°56' E 134°57'818.6
2017-Aug-10 18:31N 34°04' E 134°56'918.2
2017-Aug-10 18:00N 34°13' E 134°57'712.7
2017-Aug-10 17:30N 34°19' E 134°59'918.8
2017-Aug-10 17:01N 34°27' E 135°05'1019.5
2017-Aug-10 16:31N 34°34' E 135°13'612.2
2017-Aug-10 16:00N 34°39' E 135°15'0 0.8
2017-Aug-10 15:27N 34°39' E 135°15'0 0.0
2017-Aug-10 14:45N 34°39' E 135°15'0 0.0
2017-Aug-10 14:27N 34°39' E 135°15'0 0.0
2017-Aug-10 13:45N 34°39' E 135°15'0 0.0
2017-Aug-10 13:27N 34°39' E 135°15'0 0.0
2017-Aug-10 12:57N 34°39' E 135°15'0 0.0
2017-Aug-10 12:27N 34°39' E 135°15'0 0.0
2017-Aug-10 11:57N 34°39' E 135°15'0 0.0
2017-Aug-10 11:27N 34°39' E 135°15'0 0.0
2017-Aug-10 10:57N 34°39' E 135°15'0 0.0
2017-Aug-10 10:27N 34°39' E 135°15'0 0.0
2017-Aug-10 09:57N 34°39' E 135°15'0 0.0
2017-Aug-10 09:27N 34°39' E 135°15'0 0.0
2017-Aug-10 08:57N 34°39' E 135°15'0 0.5
2017-Aug-10 08:30N 34°39' E 135°15'2 4.2
2017-Aug-10 08:00N 34°38' E 135°17'510.3
2017-Aug-10 07:30N 34°33' E 135°15'713.9
2017-Aug-10 07:00N 34°28' E 135°09'918.6
2017-Aug-10 06:30N 34°20' E 135°02'815.4
2017-Aug-10 06:00N 34°13' E 134°60'510.9
2017-Aug-10 05:30N 34°08' E 134°60'5 9.2
2017-Aug-10 05:00N 34°03' E 134°59'713.9
2017-Aug-10 04:30N 33°56' E 134°59'23116.3
2017-Aug-09 14:19N 34°44' E 139°33'720.8
2017-Aug-09 13:58N 34°50' E 139°36'919.8
2017-Aug-09 13:30N 34°58' E 139°41'1019.5
2017-Aug-09 13:00N 35°08' E 139°45'712.9
2017-Aug-09 12:30N 35°14' E 139°46'612.2
2017-Aug-09 12:00N 35°19' E 139°43'713.9
2017-Aug-09 11:31N 35°26' E 139°46'815.6
2017-Aug-09 11:01N 35°33' E 139°51'510.7
2017-Aug-09 10:30N 35°36' E 139°46'0 0.4
2017-Aug-09 10:01N 35°36' E 139°46'0 0.1
2017-Aug-09 09:28N 35°36' E 139°46'0 0.0
2017-Aug-09 08:58N 35°36' E 139°46'0 0.0
2017-Aug-09 08:28N 35°36' E 139°46'0 0.0
2017-Aug-09 07:58N 35°36' E 139°46'0 0.0
2017-Aug-09 07:28N 35°36' E 139°46'0 0.0
2017-Aug-09 06:58N 35°36' E 139°46'0 0.0
2017-Aug-09 06:28N 35°36' E 139°46'0 0.0
2017-Aug-09 05:58N 35°36' E 139°46'0 0.0
2017-Aug-09 05:28N 35°36' E 139°46'0 0.0
2017-Aug-09 04:58N 35°36' E 139°46'0 0.0
2017-Aug-09 04:28N 35°36' E 139°46'0 0.0
2017-Aug-09 03:58N 35°36' E 139°46'0 0.0
2017-Aug-09 03:28N 35°36' E 139°46'0 0.0
2017-Aug-09 02:58N 35°36' E 139°46'0 0.0
2017-Aug-09 02:28N 35°36' E 139°46'0 0.0
2017-Aug-09 01:58N 35°36' E 139°46'0 0.0
2017-Aug-09 01:28N 35°36' E 139°46'0 0.0
2017-Aug-09 00:58N 35°36' E 139°46'0 0.0
2017-Aug-09 00:28N 35°36' E 139°46'0 0.0
2017-Aug-08 23:55N 35°36' E 139°46'0 0.0
2017-Aug-08 23:28N 35°36' E 139°46'0 0.0
2017-Aug-08 22:58N 35°36' E 139°46'0 0.7
2017-Aug-08 22:30N 35°36' E 139°46'3 5.8
2017-Aug-08 22:00N 35°34' E 139°49'4 8.9
2017-Aug-08 21:30N 35°32' E 139°53'1 2.2
2017-Aug-08 21:00N 35°31' E 139°53'2 3.9
2017-Aug-08 20:30N 35°29' E 139°52'3 6.3
2017-Aug-08 20:00N 35°27' E 139°49'4 8.1
2017-Aug-08 19:30N 35°24' E 139°46'611.3
2017-Aug-08 19:00N 35°18' E 139°45'612.1
2017-Aug-08 18:30N 35°12' E 139°47'5 9.6
2017-Aug-08 18:00N 35°08' E 139°46'4 7.4
2017-Aug-08 17:30N 35°04' E 139°45'4 8.0
2017-Aug-08 17:00N 35°00' E 139°43'610.2
2017-Aug-08 16:27N 34°55' E 139°44'510.8
2017-Aug-08 15:59N 34°51' E 139°47'1011.0
2017-Aug-08 15:04N 34°50' E 139°60'111.4
2017-Aug-08 14:58N 34°50' E 140°01'511.5
2017-Aug-08 14:30N 34°51' E 140°07'  
Track history (hours):
 
Tides and Currents Weather Stations Pressure Air Temp Water Temp Dewpoint Dewpoint Depression Visibility Wind Speed Wind Dir Waves Ship Positions

MOL Modern

Last reported at 2017-Aug-17 23:30 UTC. Time now 2017-Aug-17 23:32 UTC.
Position N 30°38' E 122°45'.

Length 302 m; draft 10.8 m.

Type: Ship (hazmat cat A). MMSI: 538004203.

Date/timePositionNaut miles runAvg speedWind from/ knotsBaromVisibWave heightAir tempDewpointWater temp
2017-Aug-17 23:30N 30°38' E 122°45'1121.6
2017-Aug-17 22:58N 30°35' E 122°32'918.9
2017-Aug-17 22:29N 30°32' E 122°22'612.0
2017-Aug-17 22:00N 30°33' E 122°15'611.3
2017-Aug-17 21:30N 30°34' E 122°09'510.0
2017-Aug-17 21:00N 30°37' E 122°04'0 0.6
2017-Aug-17 20:21N 30°37' E 122°04'0 0.1
2017-Aug-17 19:54N 30°37' E 122°04'0 0.0
2017-Aug-17 19:27N 30°37' E 122°04'0 0.0
2017-Aug-17 18:57N 30°37' E 122°04'0 0.0
2017-Aug-17 17:42N 30°37' E 122°04'0 0.0
2017-Aug-17 16:39N 30°37' E 122°04'30 1.7
2017-Aug-16 23:24N 30°30' E 122°38'511.1
2017-Aug-16 22:58N 30°29' E 122°44'5 9.5
2017-Aug-16 22:29N 30°28' E 122°49'611.3
2017-Aug-16 21:58N 30°28' E 122°55'1 0.4
2017-Aug-16 19:26N 30°29' E 122°57'0 0.1
2017-Aug-16 18:56N 30°28' E 122°57'0 0.0
2017-Aug-16 18:26N 30°28' E 122°57'0 0.1
2017-Aug-16 17:56N 30°28' E 122°56'0 0.0
2017-Aug-16 16:38N 30°28' E 122°56'0 0.0
2017-Aug-16 16:29N 30°28' E 122°56'0 0.0
2017-Aug-16 15:14N 30°28' E 122°56'0 0.1
2017-Aug-16 14:44N 30°28' E 122°57'0 0.0
2017-Aug-16 14:26N 30°28' E 122°57'0 0.1
2017-Aug-16 08:44N 30°29' E 122°56'0 0.1
2017-Aug-16 08:02N 30°28' E 122°56'0 0.1
2017-Aug-16 07:50N 30°28' E 122°56'0 0.0
2017-Aug-16 07:26N 30°29' E 122°56'0 0.0
2017-Aug-16 06:50N 30°28' E 122°56'0 0.0
2017-Aug-16 04:32N 30°28' E 122°56'0 0.0
2017-Aug-15 18:50N 30°29' E 122°56'0 0.1
2017-Aug-15 17:20N 30°28' E 122°56'0 0.0
2017-Aug-15 16:56N 30°28' E 122°56'0 0.0
2017-Aug-15 11:56N 30°28' E 122°56'0 0.0
2017-Aug-15 05:14N 30°28' E 122°56'2 0.1
2017-Aug-14 15:20N 30°28' E 122°58'3710.1
2017-Aug-14 11:38N 29°51' E 122°48'313.0
2017-Aug-14 11:26N 29°50' E 122°46'512.9
2017-Aug-14 11:00N 29°47' E 122°40'612.2
2017-Aug-14 10:30N 29°41' E 122°37'611.7
2017-Aug-14 09:58N 29°40' E 122°30'613.6
2017-Aug-14 09:30N 29°43' E 122°23'611.2
2017-Aug-14 09:00N 29°46' E 122°18'4 8.7
2017-Aug-14 08:30N 29°49' E 122°14'4 7.9
2017-Aug-14 08:00N 29°50' E 122°10'4 8.7
2017-Aug-14 07:30N 29°48' E 122°05'4 9.1
2017-Aug-14 07:00N 29°46' E 122°01'0 0.4
2017-Aug-14 06:27N 29°46' E 122°00'0 0.0
2017-Aug-14 05:57N 29°46' E 122°00'0 0.0
2017-Aug-14 05:21N 29°46' E 122°00'0 0.0
2017-Aug-14 04:48N 29°46' E 122°00'0 0.0
2017-Aug-14 04:27N 29°46' E 122°00'0 0.0
2017-Aug-14 03:51N 29°46' E 122°00'0 0.0
2017-Aug-14 03:27N 29°46' E 122°00'0 0.0
2017-Aug-14 02:57N 29°46' E 122°00'0 0.0
2017-Aug-14 02:15N 29°46' E 122°00'0 0.0
2017-Aug-14 01:57N 29°46' E 122°00'0 0.0
2017-Aug-14 01:15N 29°46' E 122°00'0 0.0
2017-Aug-14 01:00N 29°46' E 122°00'0 0.0
2017-Aug-14 00:30N 29°46' E 122°00'0 0.0
2017-Aug-13 23:51N 29°46' E 122°00'0 0.0
2017-Aug-13 23:30N 29°46' E 122°00'0 0.0
2017-Aug-13 23:00N 29°46' E 122°00'0 0.0
2017-Aug-13 22:27N 29°46' E 122°00'0 0.0
2017-Aug-13 21:57N 29°46' E 122°00'0 0.0
2017-Aug-13 21:30N 29°46' E 122°00'0 0.0
2017-Aug-13 20:57N 29°46' E 122°00'0 0.0
2017-Aug-13 20:21N 29°46' E 122°00'0 0.0
2017-Aug-13 19:51N 29°46' E 122°00'0 0.0
2017-Aug-13 19:21N 29°46' E 122°00'0 0.0
2017-Aug-13 18:57N 29°46' E 122°00'0 0.0
2017-Aug-13 18:27N 29°46' E 122°00'0 0.0
2017-Aug-13 18:00N 29°46' E 122°00'0 0.0
2017-Aug-13 17:30N 29°46' E 122°00'0 0.0
2017-Aug-13 16:57N 29°46' E 122°00'0 0.0
2017-Aug-13 16:27N 29°46' E 122°00'0 0.0
2017-Aug-13 16:00N 29°46' E 122°00'0 0.0
2017-Aug-13 15:30N 29°46' E 122°00'0 0.0
2017-Aug-13 15:00N 29°46' E 122°00'0 0.0
2017-Aug-13 14:21N 29°46' E 122°00'0 0.0
2017-Aug-13 13:57N 29°46' E 122°00'0 0.0
2017-Aug-13 13:27N 29°46' E 122°00'0 0.0
2017-Aug-13 12:57N 29°46' E 122°00'0 0.0
2017-Aug-13 10:12N 29°46' E 122°00'0 0.0
2017-Aug-13 10:00N 29°46' E 122°00'0 0.0
2017-Aug-13 04:36N 29°46' E 122°00'0 0.4
2017-Aug-13 04:28N 29°46' E 122°00'4 5.0
2017-Aug-13 03:38N 29°48' E 122°05'212.1
2017-Aug-13 03:27N 29°48' E 122°07'614.5
2017-Aug-13 03:00N 29°44' E 122°13'611.0
2017-Aug-13 02:30N 29°42' E 122°19'2 4.3
2017-Aug-13 02:00N 29°40' E 122°19'2 4.2
2017-Aug-13 01:28N 29°41' E 122°22'511.4
2017-Aug-13 00:59N 29°41' E 122°28'611.4
2017-Aug-13 00:29N 29°41' E 122°34'  
2017-Aug-10 19:11N 33°51' E 134°56'418.2
2017-Aug-10 18:57N 33°56' E 134°57'818.6
2017-Aug-10 18:31N 34°04' E 134°56'918.2
2017-Aug-10 18:00N 34°13' E 134°57'712.7
2017-Aug-10 17:30N 34°19' E 134°59'918.8
2017-Aug-10 17:01N 34°27' E 135°05'1019.5
2017-Aug-10 16:31N 34°34' E 135°13'612.2
2017-Aug-10 16:00N 34°39' E 135°15'0 0.8
2017-Aug-10 15:27N 34°39' E 135°15'0 0.0
2017-Aug-10 14:45N 34°39' E 135°15'0 0.0
2017-Aug-10 14:27N 34°39' E 135°15'0 0.0
2017-Aug-10 13:45N 34°39' E 135°15'0 0.0
2017-Aug-10 13:27N 34°39' E 135°15'0 0.0
2017-Aug-10 12:57N 34°39' E 135°15'0 0.0
2017-Aug-10 12:27N 34°39' E 135°15'0 0.0
2017-Aug-10 11:57N 34°39' E 135°15'0 0.0
2017-Aug-10 11:27N 34°39' E 135°15'0 0.0
2017-Aug-10 10:57N 34°39' E 135°15'0 0.0
2017-Aug-10 10:27N 34°39' E 135°15'0 0.0
2017-Aug-10 09:57N 34°39' E 135°15'0 0.0
2017-Aug-10 09:27N 34°39' E 135°15'0 0.0
2017-Aug-10 08:57N 34°39' E 135°15'0 0.5
2017-Aug-10 08:30N 34°39' E 135°15'2 4.2
2017-Aug-10 08:00N 34°38' E 135°17'510.3
2017-Aug-10 07:30N 34°33' E 135°15'713.9
2017-Aug-10 07:00N 34°28' E 135°09'918.6
2017-Aug-10 06:30N 34°20' E 135°02'815.4
2017-Aug-10 06:00N 34°13' E 134°60'510.9
2017-Aug-10 05:30N 34°08' E 134°60'5 9.2
2017-Aug-10 05:00N 34°03' E 134°59'713.9
2017-Aug-10 04:30N 33°56' E 134°59'23116.3
2017-Aug-09 14:19N 34°44' E 139°33'720.8
2017-Aug-09 13:58N 34°50' E 139°36'919.8
2017-Aug-09 13:30N 34°58' E 139°41'1019.5
2017-Aug-09 13:00N 35°08' E 139°45'712.9
2017-Aug-09 12:30N 35°14' E 139°46'612.2
2017-Aug-09 12:00N 35°19' E 139°43'713.9
2017-Aug-09 11:31N 35°26' E 139°46'815.6
2017-Aug-09 11:01N 35°33' E 139°51'510.7
2017-Aug-09 10:30N 35°36' E 139°46'0 0.4
2017-Aug-09 10:01N 35°36' E 139°46'0 0.1
2017-Aug-09 09:28N 35°36' E 139°46'0 0.0
2017-Aug-09 08:58N 35°36' E 139°46'0 0.0
2017-Aug-09 08:28N 35°36' E 139°46'0 0.0
2017-Aug-09 07:58N 35°36' E 139°46'0 0.0
2017-Aug-09 07:28N 35°36' E 139°46'0 0.0
2017-Aug-09 06:58N 35°36' E 139°46'0 0.0
2017-Aug-09 06:28N 35°36' E 139°46'0 0.0
2017-Aug-09 05:58N 35°36' E 139°46'0 0.0
2017-Aug-09 05:28N 35°36' E 139°46'0 0.0
2017-Aug-09 04:58N 35°36' E 139°46'0 0.0
2017-Aug-09 04:28N 35°36' E 139°46'0 0.0
2017-Aug-09 03:58N 35°36' E 139°46'0 0.0
2017-Aug-09 03:28N 35°36' E 139°46'0 0.0
2017-Aug-09 02:58N 35°36' E 139°46'0 0.0
2017-Aug-09 02:28N 35°36' E 139°46'0 0.0
2017-Aug-09 01:58N 35°36' E 139°46'0 0.0
2017-Aug-09 01:28N 35°36' E 139°46'0 0.0
2017-Aug-09 00:58N 35°36' E 139°46'0 0.0
2017-Aug-09 00:28N 35°36' E 139°46'0 0.0
2017-Aug-08 23:55N 35°36' E 139°46'0 0.0
2017-Aug-08 23:28N 35°36' E 139°46'0 0.0
2017-Aug-08 22:58N 35°36' E 139°46'0 0.7
2017-Aug-08 22:30N 35°36' E 139°46'3 5.8
2017-Aug-08 22:00N 35°34' E 139°49'4 8.9
2017-Aug-08 21:30N 35°32' E 139°53'1 2.2
2017-Aug-08 21:00N 35°31' E 139°53'2 3.9
2017-Aug-08 20:30N 35°29' E 139°52'3 6.3
2017-Aug-08 20:00N 35°27' E 139°49'4 8.1
2017-Aug-08 19:30N 35°24' E 139°46'611.3
2017-Aug-08 19:00N 35°18' E 139°45'612.1
2017-Aug-08 18:30N 35°12' E 139°47'5 9.6
2017-Aug-08 18:00N 35°08' E 139°46'4 7.4
2017-Aug-08 17:30N 35°04' E 139°45'4 8.0
2017-Aug-08 17:00N 35°00' E 139°43'610.2
2017-Aug-08 16:27N 34°55' E 139°44'510.8
2017-Aug-08 15:59N 34°51' E 139°47'1011.0
2017-Aug-08 15:04N 34°50' E 139°60'111.4
2017-Aug-08 14:58N 34°50' E 140°01'511.5
2017-Aug-08 14:30N 34°51' E 140°07'  

Dump ship's entire track history